createdAt,value
2018-12-04T00:01:34.583Z,0.6
2018-12-04T00:06:35.495Z,0.1
2018-12-04T00:11:39.616Z,1
2018-12-04T00:16:40.098Z,1
2018-12-04T00:21:42.323Z,1.6
2018-12-04T00:26:44.793Z,1.9
2018-12-04T00:31:47.001Z,2.9
2018-12-04T00:36:49.168Z,2.1
2018-12-04T00:41:51.607Z,1.1
2018-12-04T00:46:53.859Z,1.5
2018-12-04T00:51:56.147Z,1.5
2018-12-04T00:56:58.447Z,1
2018-12-04T01:02:00.764Z,1
2018-12-04T01:07:03.046Z,1.3
2018-12-04T01:12:05.301Z,1.1
2018-12-04T01:17:07.643Z,1.8
2018-12-04T01:22:09.869Z,0.3
2018-12-04T01:27:12.219Z,1.5
2018-12-04T01:32:14.581Z,0.5
2018-12-04T01:37:18.574Z,0.8
2018-12-04T01:42:19.025Z,0.6
2018-12-04T01:47:21.460Z,0.7
2018-12-04T01:52:23.742Z,0.5
2018-12-04T01:57:26.069Z,1.3
2018-12-04T02:02:28.269Z,0.8
2018-12-04T02:07:30.572Z,1.6
2018-12-04T02:12:32.873Z,1.9
2018-12-04T02:17:35.077Z,1.7
2018-12-04T02:22:37.442Z,1.5
2018-12-04T02:27:39.687Z,2.6
2018-12-04T02:32:42.029Z,1.8
2018-12-04T02:37:44.359Z,1.6
2018-12-04T02:42:46.584Z,2.9
2018-12-04T02:47:50.000Z,2.8
2018-12-04T02:52:51.259Z,4.7
2018-12-04T02:57:53.443Z,6.9
2018-12-04T03:02:55.819Z,3.5
2018-12-04T03:07:58.047Z,3.2
2018-12-04T03:13:01.631Z,3.8
2018-12-04T03:18:02.718Z,3.2
2018-12-04T03:23:04.953Z,5.5
2018-12-04T03:28:07.493Z,3.4
2018-12-04T03:33:09.605Z,3
2018-12-04T03:38:11.855Z,4.6
2018-12-04T03:43:14.175Z,4.1
2018-12-04T03:48:16.356Z,2.5
2018-12-04T03:53:18.725Z,4.8
2018-12-04T03:58:21.123Z,2.6
2018-12-04T04:03:23.330Z,3.3
2018-12-04T04:08:25.635Z,3.3
2018-12-04T04:13:27.946Z,2.7
2018-12-04T04:18:30.264Z,3.9
2018-12-04T04:23:32.592Z,2.9
2018-12-04T04:28:34.738Z,3.8
2018-12-04T04:33:37.117Z,2.3
2018-12-04T04:38:39.458Z,2.3
2018-12-04T04:43:41.695Z,1.8
2018-12-04T04:48:44.143Z,3.2
2018-12-04T04:53:46.200Z,3
2018-12-04T04:58:48.460Z,3.6
2018-12-04T05:03:50.863Z,4.3
2018-12-04T05:08:53.210Z,4.1
2018-12-04T05:13:55.360Z,3.5
2018-12-04T05:18:57.810Z,3.4
2018-12-04T05:24:00.015Z,4.8
2018-12-04T05:29:02.369Z,4.6
2018-12-04T05:34:04.557Z,2.8
2018-12-04T05:39:07.003Z,3.9
2018-12-04T05:44:09.169Z,4.1
2018-12-04T05:49:11.523Z,4.7
2018-12-04T05:54:13.731Z,4.5
2018-12-04T05:59:15.993Z,4.3
2018-12-04T06:04:18.486Z,5.3
2018-12-04T06:09:20.669Z,4.1
2018-12-04T06:14:23.023Z,3.4
2018-12-04T06:19:25.339Z,6.9
2018-12-04T06:29:29.761Z,3.7
2018-12-04T06:34:32.047Z,4.5
2018-12-04T06:39:34.434Z,4.3
2018-12-04T06:44:36.689Z,2.2
2018-12-04T06:49:39.083Z,3
2018-12-04T06:54:41.336Z,4.2
2018-12-04T06:59:43.585Z,3.1
2018-12-04T07:04:45.880Z,4.7
2018-12-04T07:09:48.300Z,5
2018-12-04T07:14:50.511Z,5.4
2018-12-04T07:19:52.785Z,3.7
2018-12-04T07:24:55.160Z,4.7
2018-12-04T07:29:57.393Z,5.1
2018-12-04T07:34:59.651Z,5.1
2018-12-04T07:40:02.058Z,5.4
2018-12-04T07:45:04.198Z,5.3
2018-12-04T07:50:06.589Z,5.1
2018-12-04T07:55:08.924Z,4.8
2018-12-04T08:00:11.122Z,4.3
2018-12-04T08:05:14.822Z,6.5
2018-12-04T08:10:15.745Z,4.3
2018-12-04T08:15:18.025Z,7.9
2018-12-04T08:20:20.260Z,3.8
2018-12-04T08:25:22.625Z,3.2
2018-12-04T08:30:24.991Z,6
2018-12-04T08:35:27.214Z,3.8
2018-12-04T08:40:29.474Z,2.7
2018-12-04T08:45:31.865Z,4.2
2018-12-04T08:50:34.027Z,2.9
2018-12-04T08:55:36.411Z,3.2
2018-12-04T09:00:38.763Z,4.2
2018-12-04T09:05:40.941Z,3.1
2018-12-04T09:10:43.161Z,3.1
2018-12-04T09:15:45.508Z,4.2
2018-12-04T09:20:47.793Z,4.8
2018-12-04T09:25:50.236Z,3.8
2018-12-04T09:30:53.862Z,1.7
2018-12-04T09:35:54.714Z,2.7
2018-12-04T09:40:56.956Z,2.7
2018-12-04T09:45:59.504Z,2.1
2018-12-04T09:51:01.742Z,3.3
2018-12-04T09:56:03.831Z,2
2018-12-04T10:01:06.278Z,2.1
2018-12-04T10:06:08.536Z,1.3
2018-12-04T10:11:10.717Z,0.7
2018-12-04T10:16:13.110Z,1.5
2018-12-04T10:21:15.442Z,0.8
2018-12-04T10:26:17.642Z,1.2
2018-12-04T10:31:19.936Z,0.9
2018-12-04T10:36:22.226Z,1.2
2018-12-04T10:41:24.552Z,0.8
2018-12-04T10:46:26.840Z,1.6
2018-12-04T10:51:29.041Z,1.6
2018-12-04T10:56:31.409Z,0.8
2018-12-04T11:01:33.745Z,0.8
2018-12-04T11:06:36.032Z,0.8
2018-12-04T11:11:42.759Z,1.5
2018-12-04T11:16:40.561Z,0.8
2018-12-04T11:21:43.199Z,0.7
2018-12-04T11:26:45.241Z,1.5
2018-12-04T11:31:47.435Z,1.2
2018-12-04T11:36:49.805Z,0.5
2018-12-04T11:41:52.106Z,1.4
2018-12-04T11:46:54.424Z,0.5
2018-12-04T11:51:56.687Z,1
2018-12-04T11:56:58.966Z,0.2
2018-12-04T12:02:01.361Z,0.4
2018-12-04T12:07:03.477Z,0.9
2018-12-04T12:12:05.796Z,1.5
2018-12-04T12:17:08.242Z,0.6
2018-12-04T12:22:10.382Z,0.8
2018-12-04T12:27:12.723Z,1
2018-12-04T12:32:14.916Z,0.9
2018-12-04T12:37:17.293Z,1.4
2018-12-04T12:42:19.591Z,0.4
2018-12-04T12:47:21.912Z,0.5
2018-12-04T12:52:24.235Z,0.7
2018-12-04T12:57:26.485Z,0.9
2018-12-04T13:02:28.708Z,0.7
2018-12-04T13:07:31.158Z,0.2
2018-12-04T13:12:33.430Z,0.9
2018-12-04T13:17:35.612Z,0.1
2018-12-04T13:22:38.014Z,0.4
2018-12-04T13:27:40.321Z,0.9
2018-12-04T13:32:42.533Z,0.5
2018-12-04T13:37:44.828Z,0.7
2018-12-04T13:42:47.230Z,0.8
2018-12-04T13:47:49.403Z,0.6
2018-12-04T13:52:51.685Z,1.2
2018-12-04T13:57:54.110Z,0.1
2018-12-04T14:02:56.321Z,0.4
2018-12-04T14:07:58.625Z,0.7
2018-12-04T14:13:14.647Z,0.4
2018-12-04T14:23:05.439Z,0.6
2018-12-04T14:28:07.747Z,1.1
2018-12-04T14:33:10.170Z,0.4
2018-12-04T14:38:12.375Z,0.5
2018-12-04T14:43:14.603Z,1.2
2018-12-04T14:48:16.998Z,1
2018-12-04T14:53:19.352Z,1
2018-12-04T14:58:21.612Z,0.6
2018-12-04T15:03:23.817Z,0.9
2018-12-04T15:08:26.218Z,1.8
2018-12-04T15:13:28.482Z,1.1
2018-12-04T15:18:30.686Z,2.4
2018-12-04T15:23:33.009Z,2.4
2018-12-04T15:28:35.413Z,1.2
2018-12-04T15:33:37.606Z,2.2
2018-12-04T15:38:39.892Z,0.9
2018-12-04T15:43:42.245Z,0.7
2018-12-04T15:48:44.403Z,2
2018-12-04T15:53:48.233Z,2.5
2018-12-04T15:58:49.003Z,3.2
2018-12-04T16:03:51.337Z,1.9
2018-12-04T16:08:53.609Z,3.2
2018-12-04T16:13:56.023Z,1.5
2018-12-04T16:18:58.165Z,1.8
2018-12-04T16:24:00.479Z,1.6
2018-12-04T16:29:02.759Z,10.3
2018-12-04T16:34:05.134Z,6
2018-12-04T16:39:07.415Z,2.5
2018-12-04T16:44:09.723Z,2.5
2018-12-04T16:49:12.035Z,2.2
2018-12-04T16:54:14.269Z,2
2018-12-04T16:59:16.555Z,2.3
2018-12-04T17:04:18.864Z,1.8
2018-12-04T17:09:21.155Z,2.1
2018-12-04T17:14:23.456Z,2.3
2018-12-04T17:19:25.870Z,2.3
2018-12-04T17:24:29.151Z,2
2018-12-04T17:29:31.529Z,2.6
2018-12-04T17:34:32.670Z,1.4
2018-12-04T17:39:34.970Z,2.9
2018-12-04T17:44:40.373Z,1.7
2018-12-04T17:49:39.520Z,1.2
2018-12-04T17:54:41.759Z,2.7
2018-12-04T17:59:44.123Z,0.9
2018-12-04T18:04:46.387Z,3
2018-12-04T18:09:48.829Z,3.3
2018-12-04T18:14:51.081Z,1.6
2018-12-04T18:19:53.359Z,2.6
2018-12-04T18:24:55.738Z,2.4
2018-12-04T18:29:57.810Z,3
2018-12-04T18:35:00.223Z,2.9
2018-12-04T18:40:02.429Z,3.4
2018-12-04T18:45:04.733Z,1.8
2018-12-04T18:50:07.070Z,1.7
2018-12-04T18:55:09.262Z,2.6
2018-12-04T19:00:11.724Z,1.3
2018-12-04T19:05:15.109Z,1.6
2018-12-04T19:10:18.051Z,6.7
2018-12-04T19:15:18.524Z,6.5
2018-12-04T19:20:20.764Z,6.1
2018-12-04T19:25:23.079Z,3.7
2018-12-04T19:30:25.484Z,1.7
2018-12-04T19:35:27.814Z,4.1
2018-12-04T19:40:29.943Z,3.2
2018-12-04T19:45:32.228Z,2.9
2018-12-04T19:50:34.521Z,2.9
2018-12-04T19:55:36.803Z,4.5
2018-12-04T20:00:39.153Z,5.9
2018-12-04T20:05:41.490Z,4.1
2018-12-04T20:10:43.796Z,5.8
2018-12-04T20:15:46.050Z,5.1
2018-12-04T20:20:48.320Z,3.2
2018-12-04T20:25:50.569Z,3.2
2018-12-04T20:30:52.919Z,2.4
2018-12-04T20:35:56.925Z,2.6
2018-12-04T20:40:57.635Z,5.2
2018-12-04T20:46:05.942Z,3.7
2018-12-04T20:51:02.120Z,3.2
2018-12-04T20:56:04.476Z,6.1
2018-12-04T21:01:06.690Z,3.3
2018-12-04T21:06:09.008Z,5.8
2018-12-04T21:11:11.440Z,3.9
2018-12-04T21:16:13.493Z,4.3
2018-12-04T21:21:15.873Z,5.2
2018-12-04T21:26:18.202Z,7
2018-12-04T21:31:20.525Z,5.4
2018-12-04T21:36:22.714Z,6
2018-12-04T21:41:25.018Z,5.2
2018-12-04T21:46:27.269Z,4.9
2018-12-04T21:51:29.610Z,5
2018-12-04T21:56:31.875Z,5.8
2018-12-04T22:01:34.352Z,4.6
2018-12-04T22:06:36.539Z,4.2
2018-12-04T22:11:38.801Z,5.8
2018-12-04T22:16:41.049Z,3.6
2018-12-04T22:21:43.356Z,4.8
2018-12-04T22:26:45.691Z,5.4
2018-12-04T22:31:48.067Z,5.1
2018-12-04T22:36:50.407Z,5.7
2018-12-04T22:46:54.880Z,6.8
2018-12-04T22:51:57.142Z,7.2
2018-12-04T22:56:59.402Z,9.6
2018-12-04T23:02:01.914Z,9.5
2018-12-04T23:07:03.989Z,9.1
2018-12-04T23:12:06.276Z,8.5
2018-12-04T23:17:08.707Z,6.9
2018-12-04T23:22:10.953Z,6.9
2018-12-04T23:27:13.209Z,8.9
2018-12-04T23:32:15.414Z,7.3
2018-12-04T23:37:17.767Z,8.9
2018-12-04T23:42:20.018Z,8.9
2018-12-04T23:47:22.415Z,10.8
2018-12-04T23:52:24.693Z,6.8
2018-12-04T23:57:26.983Z,8.8
